Time;durP1;ratioP1;P1;durP2;ratioP2;P2;SDS_P1;SDS_P2;PMS_P1;PMS_P2;Temp;Humidity;BMP_temperature;BMP_pressure;BME280_temperature;BME280_humidity;BME280_pressure;Samples;Min_cycle;Max_cycle;Signal;HPM_P1;HPM_P2
2021/07/12 00:01:03;;;;;;;8.00;3.87;;;;;;;;;;10546301;28;20220;-73
2021/07/12 00:06:06;;;;;;;9.27;4.90;;;;;;;;;;10552849;28;20210;-74
2021/07/12 00:11:10;;;;;;;7.33;3.77;;;;;;;;;;10561984;28;20242;-74
2021/07/12 00:16:12;;;;;;;7.93;4.20;;;;;;;;;;10551088;28;20271;-73
2021/07/12 00:21:15;;;;;;;7.50;4.00;;;;;;;;;;10563468;28;20263;-74
2021/07/12 00:26:19;;;;;;;8.50;4.20;;;;;;;;;;10551328;28;20298;-73
2021/07/12 00:31:22;;;;;;;9.67;5.43;;;;;;;;;;10547049;28;20279;-74
2021/07/12 00:36:25;;;;;;;8.30;4.33;;;;;;;;;;10571673;28;20210;-74
2021/07/12 00:41:29;;;;;;;9.10;4.60;;;;;;;;;;10564993;28;20218;-72
2021/07/12 00:46:32;;;;;;;9.97;5.00;;;;;;;;;;10567066;28;20642;-72
2021/07/12 00:51:34;;;;;;;10.23;4.90;;;;;;;;;;10550536;28;21109;-73
2021/07/12 00:56:38;;;;;;;9.63;4.53;;;;;;;;;;10572091;28;20214;-72
2021/07/12 01:01:41;;;;;;;10.60;4.70;;;;;;;;;;10570889;28;20211;-72
2021/07/12 01:06:43;;;;;;;9.57;4.77;;;;;;;;;;10548852;28;20207;-71
2021/07/12 01:11:53;;;;;;;9.83;4.80;;;;;;;;;;10542105;28;20774;-72
2021/07/12 01:17:00;;;;;;;9.53;4.23;;;;;;;;;;10561881;28;20238;-72
2021/07/12 01:22:32;;;;;;;10.67;4.40;;;;;;;;;;10562827;28;20207;-73
2021/07/12 01:27:48;;;;;;;9.23;4.33;;;;;;;;;;10448096;28;20288;-71
2021/07/12 01:33:06;;;;;;;6.90;3.90;;;;;;;;;;10560829;28;20709;-72
2021/07/12 01:38:15;;;;;;;7.97;4.20;;;;;;;;;;10565093;28;20230;-73
2021/07/12 01:43:21;;;;;;;6.27;3.70;;;;;;;;;;10555400;28;20211;-73
2021/07/12 01:48:28;;;;;;;8.47;4.00;;;;;;;;;;10572074;28;20215;-72
2021/07/12 01:53:39;;;;;;;8.00;4.10;;;;;;;;;;10567542;28;21035;-72
2021/07/12 01:58:43;;;;;;;7.00;4.07;;;;;;;;;;10568706;28;20769;-72
2021/07/12 02:03:47;;;;;;;7.47;3.73;;;;;;;;;;10562526;28;20245;-72
2021/07/12 02:08:52;;;;;;;8.03;4.17;;;;;;;;;;10566289;28;20294;-73
2021/07/12 02:13:54;;;;;;;8.03;4.67;;;;;;;;;;10547781;28;20214;-72
2021/07/12 02:18:58;;;;;;;9.80;4.70;;;;;;;;;;10548106;28;20204;-72
2021/07/12 02:24:03;;;;;;;8.53;5.10;;;;;;;;;;10565224;28;20241;-72
2021/07/12 02:29:07;;;;;;;8.73;4.70;;;;;;;;;;10547337;28;20222;-74
2021/07/12 02:34:10;;;;;;;10.30;5.07;;;;;;;;;;10539291;28;20317;-72
2021/07/12 02:39:15;;;;;;;9.37;5.03;;;;;;;;;;10553287;28;20199;-73
2021/07/12 02:44:18;;;;;;;10.70;6.07;;;;;;;;;;10556793;28;20227;-72
2021/07/12 02:49:20;;;;;;;11.27;6.03;;;;;;;;;;10554253;28;20282;-72
2021/07/12 02:54:26;;;;;;;10.50;5.87;;;;;;;;;;10555115;28;20211;-73
2021/07/12 02:59:29;;;;;;;9.13;5.27;;;;;;;;;;10531904;28;20199;-72
2021/07/12 03:04:32;;;;;;;9.20;5.33;;;;;;;;;;10541342;28;20211;-72
2021/07/12 03:09:39;;;;;;;9.60;5.47;;;;;;;;;;10536626;28;20540;-73
2021/07/12 03:14:44;;;;;;;10.60;5.63;;;;;;;;;;10548907;28;20227;-73
2021/07/12 03:19:47;;;;;;;9.60;5.07;;;;;;;;;;10559595;28;20645;-73
2021/07/12 03:24:54;;;;;;;11.13;5.57;;;;;;;;;;10546108;28;20222;-74
2021/07/12 03:29:57;;;;;;;10.13;5.97;;;;;;;;;;10552819;28;20226;-74
2021/07/12 03:35:01;;;;;;;10.17;5.67;;;;;;;;;;10556048;28;20195;-73
2021/07/12 03:40:05;;;;;;;11.00;6.00;;;;;;;;;;10550634;28;20288;-74
2021/07/12 03:45:09;;;;;;;9.17;5.40;;;;;;;;;;10570958;28;20188;-74
2021/07/12 03:50:14;;;;;;;9.53;5.13;;;;;;;;;;10562249;28;20238;-74
2021/07/12 03:55:20;;;;;;;10.50;5.87;;;;;;;;;;10545951;28;20200;-75
2021/07/12 04:00:23;;;;;;;9.97;5.93;;;;;;;;;;10569840;28;20203;-75
2021/07/12 04:05:27;;;;;;;10.43;6.23;;;;;;;;;;10562351;28;20256;-74
2021/07/12 04:10:32;;;;;;;11.27;5.77;;;;;;;;;;10542766;28;20225;-75
2021/07/12 04:15:34;;;;;;;11.27;5.40;;;;;;;;;;10560576;28;20275;-73
2021/07/12 04:20:37;;;;;;;9.20;5.13;;;;;;;;;;10568590;28;20214;-74
2021/07/12 04:25:41;;;;;;;9.77;5.30;;;;;;;;;;10566728;28;20191;-74
2021/07/12 04:30:44;;;;;;;9.87;6.07;;;;;;;;;;10552782;28;20221;-75
2021/07/12 04:35:46;;;;;;;9.60;5.13;;;;;;;;;;10568239;28;20188;-74
2021/07/12 04:40:50;;;;;;;8.90;5.00;;;;;;;;;;10575390;28;20210;-73
2021/07/12 04:45:53;;;;;;;10.13;5.23;;;;;;;;;;10568585;28;20623;-73
2021/07/12 04:50:56;;;;;;;8.17;4.63;;;;;;;;;;10542619;28;20222;-74
2021/07/12 04:55:59;;;;;;;8.13;4.40;;;;;;;;;;10543920;28;20222;-73
2021/07/12 05:01:02;;;;;;;8.00;4.60;;;;;;;;;;10547239;28;20215;-73
2021/07/12 05:06:05;;;;;;;8.33;4.43;;;;;;;;;;10565427;28;20618;-74
2021/07/12 05:11:09;;;;;;;8.83;4.03;;;;;;;;;;10561888;28;20222;-74
2021/07/12 05:16:11;;;;;;;7.50;4.07;;;;;;;;;;10552284;28;20207;-74
2021/07/12 05:21:14;;;;;;;6.83;3.80;;;;;;;;;;10570901;28;20425;-75
2021/07/12 05:26:18;;;;;;;7.93;3.73;;;;;;;;;;10579309;28;20266;-74
2021/07/12 05:31:20;;;;;;;6.67;3.53;;;;;;;;;;10563440;28;20207;-74
2021/07/12 05:36:23;;;;;;;6.47;3.57;;;;;;;;;;10570548;28;20201;-74
2021/07/12 05:41:27;;;;;;;9.93;3.83;;;;;;;;;;10565415;28;20246;-74
2021/07/12 05:46:30;;;;;;;7.07;3.87;;;;;;;;;;10567647;28;20218;-73
2021/07/12 05:51:33;;;;;;;6.60;3.70;;;;;;;;;;10565285;28;20334;-74
2021/07/12 05:56:37;;;;;;;6.70;3.20;;;;;;;;;;10548865;28;20350;-74
2021/07/12 06:01:40;;;;;;;6.87;3.43;;;;;;;;;;10549668;28;20363;-72
2021/07/12 06:06:46;;;;;;;6.47;3.20;;;;;;;;;;10568631;28;20622;-73
2021/07/12 06:11:50;;;;;;;5.20;2.87;;;;;;;;;;10570251;28;20221;-74
2021/07/12 06:16:53;;;;;;;6.13;3.03;;;;;;;;;;10565274;28;20190;-72
2021/07/12 06:21:55;;;;;;;5.77;2.70;;;;;;;;;;10552493;28;20329;-73
2021/07/12 06:26:59;;;;;;;5.10;2.30;;;;;;;;;;10563826;28;20280;-74
2021/07/12 06:32:02;;;;;;;5.80;2.17;;;;;;;;;;10548779;28;20276;-73
2021/07/12 06:37:04;;;;;;;3.40;1.90;;;;;;;;;;10548729;28;20245;-73
2021/07/12 06:42:08;;;;;;;7.27;2.17;;;;;;;;;;10534065;28;20211;-72
2021/07/12 06:47:11;;;;;;;4.43;2.10;;;;;;;;;;10533050;28;20283;-72
2021/07/12 06:52:13;;;;;;;4.70;1.77;;;;;;;;;;10546703;28;20365;-72
2021/07/12 06:57:18;;;;;;;3.73;1.90;;;;;;;;;;10550737;28;20191;-73
2021/07/12 07:02:21;;;;;;;4.50;2.10;;;;;;;;;;10551822;28;20233;-72
2021/07/12 07:07:23;;;;;;;3.57;1.90;;;;;;;;;;10547207;28;20211;-72
2021/07/12 07:12:27;;;;;;;4.83;1.77;;;;;;;;;;10554908;28;20281;-72
2021/07/12 07:17:30;;;;;;;5.17;2.17;;;;;;;;;;10555070;28;20244;-72
2021/07/12 07:22:32;;;;;;;5.67;1.80;;;;;;;;;;10537451;28;20348;-72
2021/07/12 07:27:36;;;;;;;3.23;1.73;;;;;;;;;;10557067;28;20604;-72
2021/07/12 07:32:40;;;;;;;1.97;1.50;;;;;;;;;;10544438;28;20226;-72
2021/07/12 07:37:43;;;;;;;4.07;1.60;;;;;;;;;;10537213;28;20244;-72
2021/07/12 07:42:47;;;;;;;4.20;1.77;;;;;;;;;;10552501;28;20617;-73
2021/07/12 07:47:50;;;;;;;3.40;1.60;;;;;;;;;;10549083;28;20238;-72
2021/07/12 07:52:55;;;;;;;3.03;1.47;;;;;;;;;;10550204;28;20500;-72
2021/07/12 07:57:58;;;;;;;3.53;1.65;;;;;;;;;;10553251;28;20245;-73
2021/07/12 08:03:01;;;;;;;4.15;1.60;;;;;;;;;;10557818;28;20295;-73
2021/07/12 08:08:04;;;;;;;2.35;1.40;;;;;;;;;;10565633;28;20273;-72
2021/07/12 08:13:09;;;;;;;1.58;1.48;;;;;;;;;;10548665;28;20305;-73
2021/07/12 08:18:13;;;;;;;1.95;1.38;;;;;;;;;;10554632;28;20691;-73
2021/07/12 08:23:18;;;;;;;2.33;1.60;;;;;;;;;;10546245;28;20306;-73
2021/07/12 08:28:24;;;;;;;2.47;1.70;;;;;;;;;;10537015;28;20914;-73
2021/07/12 08:33:27;;;;;;;2.05;1.50;;;;;;;;;;10562536;28;20234;-74
2021/07/12 08:38:29;;;;;;;3.45;1.50;;;;;;;;;;10547337;28;20188;-74
2021/07/12 08:43:33;;;;;;;3.28;1.70;;;;;;;;;;10543607;28;20223;-74
2021/07/12 08:48:53;;;;;;;1.88;1.50;;;;;;;;;;10543300;28;20207;-74
2021/07/12 08:54:00;;;;;;;1.73;1.50;;;;;;;;;;10530462;28;20645;-73
2021/07/12 08:59:18;;;;;;;2.58;1.55;;;;;;;;;;10552092;28;20187;-73
2021/07/12 09:04:28;;;;;;;2.92;1.65;;;;;;;;;;10559792;28;20331;-73
2021/07/12 09:09:30;;;;;;;2.75;1.60;;;;;;;;;;10542551;28;22288;-74
2021/07/12 09:14:34;;;;;;;2.80;1.38;;;;;;;;;;10534055;28;20363;-73
2021/07/12 09:19:39;;;;;;;2.67;1.50;;;;;;;;;;10547746;28;20606;-74
2021/07/12 09:24:45;;;;;;;2.70;1.60;;;;;;;;;;10528419;28;20246;-74
2021/07/12 09:29:49;;;;;;;2.22;1.35;;;;;;;;;;10551783;28;20663;-75
2021/07/12 09:34:55;;;;;;;2.65;1.42;;;;;;;;;;10544995;28;20188;-74
2021/07/12 09:39:58;;;;;;;1.92;1.60;;;;;;;;;;10550581;28;20278;-74
2021/07/12 09:45:02;;;;;;;1.50;1.40;;;;;;;;;;10536657;28;20288;-76
2021/07/12 09:50:08;;;;;;;1.65;1.50;;;;;;;;;;10559213;28;20626;-73
2021/07/12 09:55:14;;;;;;;3.63;1.58;;;;;;;;;;10559546;28;20736;-76
2021/07/12 10:00:18;;;;;;;1.55;1.40;;;;;;;;;;10559351;28;20669;-77
2021/07/12 10:05:22;;;;;;;1.50;1.40;;;;;;;;;;10536203;28;20203;-77
2021/07/12 10:10:25;;;;;;;3.72;1.80;;;;;;;;;;10561900;28;20226;-77
2021/07/12 10:15:28;;;;;;;1.90;1.67;;;;;;;;;;10555477;28;20203;-78
2021/07/12 10:20:33;;;;;;;1.83;1.60;;;;;;;;;;10555688;28;20214;-77
2021/07/12 10:25:38;;;;;;;2.85;1.60;;;;;;;;;;10537880;28;20198;-77
2021/07/12 10:30:45;;;;;;;2.33;1.50;;;;;;;;;;10557724;28;20282;-77
2021/07/12 10:35:52;;;;;;;2.63;1.58;;;;;;;;;;10550311;28;20221;-77
2021/07/12 10:40:55;;;;;;;3.80;1.67;;;;;;;;;;10550917;28;20203;-77
2021/07/12 10:45:57;;;;;;;3.17;1.80;;;;;;;;;;10549668;28;20187;-78
2021/07/12 10:51:14;;;;;;;2.15;1.65;;;;;;;;;;10554042;28;20210;-77
2021/07/12 10:56:17;;;;;;;4.60;1.90;;;;;;;;;;10547362;28;20194;-78
2021/07/12 11:01:35;;;;;;;2.08;1.70;;;;;;;;;;10564930;28;20210;-79
2021/07/12 11:06:53;;;;;;;2.50;1.70;;;;;;;;;;10563852;28;20235;-79
2021/07/12 11:11:56;;;;;;;3.70;1.90;;;;;;;;;;10561376;28;20281;-79
2021/07/12 11:17:00;;;;;;;2.08;1.88;;;;;;;;;;10567845;28;20730;-79
2021/07/12 11:22:18;;;;;;;2.85;2.00;;;;;;;;;;10566016;28;20230;-79
2021/07/12 11:27:34;;;;;;;4.15;2.20;;;;;;;;;;10557420;28;20550;-78
2021/07/12 11:32:37;;;;;;;2.58;1.83;;;;;;;;;;10560606;28;20279;-79
2021/07/12 11:37:40;;;;;;;2.70;1.90;;;;;;;;;;10550568;28;20190;-78
2021/07/12 11:42:43;;;;;;;3.22;1.85;;;;;;;;;;10559509;28;20211;-80
2021/07/12 11:47:47;;;;;;;3.53;1.95;;;;;;;;;;10546274;28;20230;-79
2021/07/12 11:52:50;;;;;;;2.88;2.22;;;;;;;;;;10564717;28;20723;-79
2021/07/12 11:57:56;;;;;;;2.15;1.77;;;;;;;;;;10565929;28;20192;-79
2021/07/12 12:03:00;;;;;;;2.42;2.13;;;;;;;;;;10552589;28;20346;-78
2021/07/12 12:08:03;;;;;;;4.38;2.53;;;;;;;;;;10563466;28;20183;-77
2021/07/12 12:13:12;;;;;;;2.22;1.90;;;;;;;;;;10537798;28;20214;-78
2021/07/12 12:18:16;;;;;;;4.50;2.10;;;;;;;;;;10534723;28;20760;-78
2021/07/12 12:23:19;;;;;;;2.85;2.03;;;;;;;;;;10554775;28;20233;-79
2021/07/12 12:28:40;;;;;;;3.33;2.25;;;;;;;;;;10569578;28;20249;-79
2021/07/12 12:33:44;;;;;;;3.15;2.30;;;;;;;;;;10571560;28;20803;-79
2021/07/12 12:38:50;;;;;;;5.75;2.38;;;;;;;;;;10553917;28;20223;-78
2021/07/12 12:44:00;;;;;;;4.20;2.35;;;;;;;;;;10562865;28;20222;-79
2021/07/12 12:49:12;;;;;;;4.15;2.63;;;;;;;;;;10544409;28;20321;-78
2021/07/12 12:54:15;;;;;;;4.78;2.83;;;;;;;;;;10559287;28;20223;-79
2021/07/12 12:59:18;;;;;;;3.88;2.15;;;;;;;;;;10557083;28;20201;-80
2021/07/12 13:04:22;;;;;;;3.70;2.00;;;;;;;;;;10550955;28;20230;-80
2021/07/12 13:14:43;;;;;;;2.90;2.28;;;;;;;;;;10175060;28;20259;-77
2021/07/12 13:19:53;;;;;;;4.80;2.22;;;;;;;;;;10222437;28;20234;-75
2021/07/12 13:24:56;;;;;;;3.38;2.22;;;;;;;;;;10237039;28;20212;-76
2021/07/12 13:29:59;;;;;;;4.10;2.20;;;;;;;;;;10250531;28;20824;-76
2021/07/12 13:35:09;;;;;;;2.92;2.05;;;;;;;;;;10250533;28;20196;-77
2021/07/12 13:40:12;;;;;;;3.50;2.08;;;;;;;;;;10241364;28;20212;-77
2021/07/12 13:45:15;;;;;;;4.50;2.30;;;;;;;;;;10231845;28;20203;-76
2021/07/12 13:50:20;;;;;;;3.17;2.05;;;;;;;;;;10237902;28;20691;-76
2021/07/12 13:55:23;;;;;;;5.63;2.10;;;;;;;;;;10224508;28;20208;-77
2021/07/12 14:00:26;;;;;;;3.72;2.10;;;;;;;;;;10236219;28;20656;-77
2021/07/12 14:05:30;;;;;;;2.83;1.80;;;;;;;;;;10239606;28;20251;-77
2021/07/12 14:10:32;;;;;;;3.28;2.08;;;;;;;;;;10237052;28;20300;-77
2021/07/12 14:15:35;;;;;;;4.50;2.00;;;;;;;;;;10238489;28;20208;-76
2021/07/12 14:20:49;;;;;;;3.10;1.80;;;;;;;;;;10238525;28;20211;-78
2021/07/12 14:25:54;;;;;;;4.53;1.80;;;;;;;;;;10240780;28;20203;-77
2021/07/12 14:30:57;;;;;;;3.35;1.67;;;;;;;;;;10257842;28;20250;-77
2021/07/12 14:36:01;;;;;;;3.55;1.80;;;;;;;;;;10245883;28;20199;-77
2021/07/12 14:41:04;;;;;;;3.67;1.65;;;;;;;;;;10234201;28;20216;-77
2021/07/12 14:46:09;;;;;;;3.13;1.50;;;;;;;;;;10243316;28;20211;-75
2021/07/12 14:51:14;;;;;;;2.35;1.67;;;;;;;;;;10245862;28;20230;-77
2021/07/12 14:56:16;;;;;;;1.90;1.60;;;;;;;;;;10247408;28;20664;-76
2021/07/12 15:01:19;;;;;;;2.53;1.73;;;;;;;;;;10254783;28;20370;-76
2021/07/12 15:06:22;;;;;;;3.30;1.70;;;;;;;;;;10244504;28;20276;-77
2021/07/12 15:11:26;;;;;;;2.45;1.67;;;;;;;;;;10237768;28;20310;-77
2021/07/12 15:16:28;;;;;;;2.63;1.65;;;;;;;;;;10235812;28;20312;-76
2021/07/12 15:21:34;;;;;;;3.10;1.50;;;;;;;;;;10260567;28;20676;-76
2021/07/12 15:26:36;;;;;;;3.80;1.48;;;;;;;;;;10261307;28;20208;-76
2021/07/12 15:31:39;;;;;;;2.15;1.40;;;;;;;;;;10251284;28;20231;-76
2021/07/12 15:36:43;;;;;;;2.70;1.70;;;;;;;;;;10251358;28;20224;-77
2021/07/12 15:41:47;;;;;;;3.00;1.70;;;;;;;;;;10241177;28;20551;-76
2021/07/12 15:46:49;;;;;;;3.88;1.70;;;;;;;;;;10248547;28;20283;-77
2021/07/12 15:51:54;;;;;;;4.32;2.30;;;;;;;;;;10247047;28;20242;-77
2021/07/12 15:56:57;;;;;;;4.68;1.77;;;;;;;;;;10264661;28;20193;-77
2021/07/12 16:02:01;;;;;;;2.53;1.80;;;;;;;;;;10253377;28;20217;-77
2021/07/12 16:07:05;;;;;;;4.00;1.98;;;;;;;;;;10262313;28;20211;-77
2021/07/12 16:12:08;;;;;;;2.83;1.95;;;;;;;;;;10246643;28;20227;-74
2021/07/12 16:17:12;;;;;;;3.15;1.80;;;;;;;;;;10252541;28;20342;-76
2021/07/12 16:22:16;;;;;;;4.05;1.60;;;;;;;;;;10255872;28;20208;-77
2021/07/12 16:27:18;;;;;;;2.80;1.70;;;;;;;;;;10258573;28;20283;-77
2021/07/12 16:32:21;;;;;;;3.70;1.58;;;;;;;;;;10260533;28;20295;-78
2021/07/12 16:37:25;;;;;;;5.10;1.70;;;;;;;;;;10247235;28;20220;-77
2021/07/12 16:42:28;;;;;;;3.80;1.73;;;;;;;;;;10243513;28;20218;-76
2021/07/12 16:47:31;;;;;;;3.15;1.85;;;;;;;;;;10248809;28;20204;-77
2021/07/12 16:52:35;;;;;;;2.53;1.70;;;;;;;;;;10259771;28;20216;-76
2021/07/12 16:57:37;;;;;;;5.10;1.70;;;;;;;;;;10259334;28;20228;-77
2021/07/12 17:02:40;;;;;;;3.42;1.63;;;;;;;;;;10243741;28;20688;-77
2021/07/12 17:07:44;;;;;;;3.83;1.70;;;;;;;;;;10258930;28;20193;-75
2021/07/12 17:12:47;;;;;;;3.45;1.77;;;;;;;;;;10235010;28;20310;-75
2021/07/12 17:17:50;;;;;;;2.72;1.52;;;;;;;;;;10249755;28;20256;-76
2021/07/12 17:22:54;;;;;;;4.20;2.25;;;;;;;;;;10243779;28;20213;-76
2021/07/12 17:27:57;;;;;;;6.15;2.10;;;;;;;;;;10230926;28;20199;-76
2021/07/12 17:33:00;;;;;;;3.83;2.10;;;;;;;;;;10228715;28;20228;-78
2021/07/12 17:38:04;;;;;;;3.53;1.98;;;;;;;;;;10226874;28;20204;-76
2021/07/12 17:43:07;;;;;;;4.00;1.90;;;;;;;;;;10246803;28;20224;-76
2021/07/12 17:48:09;;;;;;;4.22;2.10;;;;;;;;;;10240917;28;20275;-76
2021/07/12 17:53:13;;;;;;;5.10;2.28;;;;;;;;;;10236083;28;20216;-77
2021/07/12 17:58:16;;;;;;;3.40;2.05;;;;;;;;;;10246510;28;20235;-77
2021/07/12 18:03:19;;;;;;;3.72;2.08;;;;;;;;;;10225682;28;20224;-77
2021/07/12 18:08:23;;;;;;;4.80;2.03;;;;;;;;;;10238088;28;20950;-77
2021/07/12 18:13:26;;;;;;;4.47;2.00;;;;;;;;;;10231136;28;20276;-77
2021/07/12 18:18:29;;;;;;;3.58;1.90;;;;;;;;;;10228743;28;20259;-76
2021/07/12 18:23:33;;;;;;;4.10;2.17;;;;;;;;;;10254239;28;20225;-78
2021/07/12 18:28:36;;;;;;;5.20;2.03;;;;;;;;;;10232594;28;20228;-77
2021/07/12 18:33:38;;;;;;;4.97;2.30;;;;;;;;;;10236651;28;20328;-77
2021/07/12 18:38:42;;;;;;;4.53;2.15;;;;;;;;;;10257034;28;20200;-78
2021/07/12 18:43:47;;;;;;;4.57;2.40;;;;;;;;;;10252851;28;20216;-79
2021/07/12 18:48:50;;;;;;;6.68;2.30;;;;;;;;;;10257828;28;20231;-78
2021/07/12 18:53:54;;;;;;;6.32;2.20;;;;;;;;;;10247035;28;20577;-77
2021/07/12 18:58:57;;;;;;;5.78;2.97;;;;;;;;;;10245120;28;20549;-77
2021/07/12 19:04:00;;;;;;;6.50;2.95;;;;;;;;;;10242092;28;20220;-77
2021/07/12 19:09:04;;;;;;;4.63;2.50;;;;;;;;;;10241533;28;20251;-77
2021/07/12 19:14:08;;;;;;;5.10;2.60;;;;;;;;;;10252989;28;20310;-78
2021/07/12 19:19:11;;;;;;;9.07;5.10;;;;;;;;;;10237788;28;20295;-77
2021/07/12 19:24:15;;;;;;;5.70;2.70;;;;;;;;;;10261125;28;20692;-77
2021/07/12 19:29:18;;;;;;;5.60;2.60;;;;;;;;;;10238924;28;20202;-78
2021/07/12 19:34:40;;;;;;;7.03;3.17;;;;;;;;;;10262228;28;20708;-78
2021/07/12 19:39:43;;;;;;;6.07;2.60;;;;;;;;;;10259593;28;20601;-77
2021/07/12 19:44:46;;;;;;;5.60;2.60;;;;;;;;;;10252185;28;20605;-75
2021/07/12 19:49:48;;;;;;;6.37;2.80;;;;;;;;;;10238869;28;20845;-74
2021/07/12 19:54:52;;;;;;;6.00;2.90;;;;;;;;;;10257799;28;20717;-75
2021/07/12 19:59:55;;;;;;;9.00;4.23;;;;;;;;;;10249875;28;20212;-73
2021/07/12 20:04:57;;;;;;;5.50;2.57;;;;;;;;;;10255328;28;20239;-73
2021/07/12 20:10:01;;;;;;;11.90;7.47;;;;;;;;;;10264941;28;20307;-72
2021/07/12 20:15:05;;;;;;;15.13;10.13;;;;;;;;;;10253213;28;20220;-71
2021/07/12 20:20:12;;;;;;;6.85;3.78;;;;;;;;;;10244150;28;20729;-74
2021/07/12 20:25:20;;;;;;;7.10;3.20;;;;;;;;;;10259382;28;20532;-74
2021/07/12 20:30:22;;;;;;;4.80;2.55;;;;;;;;;;10248018;28;20288;-72
2021/07/12 20:35:25;;;;;;;6.93;3.50;;;;;;;;;;10247480;28;20201;-73
2021/07/12 20:40:29;;;;;;;8.17;3.57;;;;;;;;;;10245169;28;20711;-74
2021/07/12 20:45:32;;;;;;;6.30;2.67;;;;;;;;;;10244668;28;20228;-72
2021/07/12 20:50:35;;;;;;;7.43;3.67;;;;;;;;;;10246649;28;20584;-72
2021/07/12 20:55:39;;;;;;;7.13;2.67;;;;;;;;;;10241672;28;20220;-72
2021/07/12 21:00:42;;;;;;;5.43;2.88;;;;;;;;;;10248108;28;20305;-72
2021/07/12 21:05:45;;;;;;;8.23;3.10;;;;;;;;;;10242130;28;20200;-72
2021/07/12 21:10:49;;;;;;;7.10;3.10;;;;;;;;;;10245468;28;20565;-71
2021/07/12 21:15:52;;;;;;;8.93;4.23;;;;;;;;;;10241920;28;21056;-72
2021/07/12 21:20:54;;;;;;;7.73;3.23;;;;;;;;;;10249066;28;20781;-72
2021/07/12 21:25:58;;;;;;;8.20;3.37;;;;;;;;;;10250413;28;20575;-72
2021/07/12 21:31:01;;;;;;;6.80;3.73;;;;;;;;;;10241990;28;20295;-73
2021/07/12 21:36:06;;;;;;;7.13;3.40;;;;;;;;;;10243518;28;20208;-73
2021/07/12 21:41:10;;;;;;;8.07;3.03;;;;;;;;;;10234434;28;20564;-72
2021/07/12 21:46:13;;;;;;;6.60;3.03;;;;;;;;;;10246794;28;20751;-72
2021/07/12 21:51:17;;;;;;;7.23;2.97;;;;;;;;;;10239623;28;20231;-71
2021/07/12 21:56:21;;;;;;;8.90;3.40;;;;;;;;;;10245261;28;20199;-71
2021/07/12 22:01:24;;;;;;;6.53;3.20;;;;;;;;;;10245637;28;20242;-72
2021/07/12 22:06:27;;;;;;;5.10;3.00;;;;;;;;;;10253678;28;20199;-72
2021/07/12 22:11:31;;;;;;;6.23;3.00;;;;;;;;;;10246160;28;20293;-72
2021/07/12 22:16:45;;;;;;;5.27;2.93;;;;;;;;;;10249640;28;20241;-70
2021/07/12 22:21:51;;;;;;;5.83;3.00;;;;;;;;;;10242381;28;20552;-72
2021/07/12 22:27:15;;;;;;;5.20;2.80;;;;;;;;;;10239334;28;20197;-72
2021/07/12 22:32:19;;;;;;;5.43;2.80;;;;;;;;;;10240410;28;20271;-73
2021/07/12 22:37:22;;;;;;;7.27;3.20;;;;;;;;;;10239561;28;20219;-72
2021/07/12 22:42:26;;;;;;;7.70;3.30;;;;;;;;;;10243599;28;20219;-70
2021/07/12 22:47:28;;;;;;;7.67;3.50;;;;;;;;;;10245574;28;20223;-72
2021/07/12 22:52:31;;;;;;;6.13;3.20;;;;;;;;;;10239819;28;20374;-74
2021/07/12 22:57:35;;;;;;;7.33;4.10;;;;;;;;;;10244367;28;20229;-74
2021/07/12 23:02:38;;;;;;;7.10;3.47;;;;;;;;;;10239829;28;20220;-74
2021/07/12 23:07:41;;;;;;;7.27;2.97;;;;;;;;;;10242997;28;20592;-73
2021/07/12 23:12:46;;;;;;;6.07;3.07;;;;;;;;;;10239028;28;20299;-74
2021/07/12 23:17:48;;;;;;;6.73;2.90;;;;;;;;;;10243610;28;20201;-72
2021/07/12 23:22:51;;;;;;;7.33;3.43;;;;;;;;;;10246764;28;20212;-74
2021/07/12 23:27:55;;;;;;;6.63;3.10;;;;;;;;;;10244834;28;20196;-74
2021/07/12 23:32:58;;;;;;;7.80;2.90;;;;;;;;;;10244099;28;20576;-74
2021/07/12 23:38:01;;;;;;;6.47;3.10;;;;;;;;;;10255341;28;20226;-75
2021/07/12 23:43:05;;;;;;;5.33;2.90;;;;;;;;;;10245963;28;20247;-75
2021/07/12 23:48:08;;;;;;;4.73;2.50;;;;;;;;;;10245358;28;20683;-73
2021/07/12 23:53:12;;;;;;;5.43;2.67;;;;;;;;;;10239446;28;20244;-74
2021/07/12 23:58:17;;;;;;;5.47;2.93;;;;;;;;;;10250091;28;20200;-74
